EW0146 Kokkola FI current weather conditions

sailwx.info

Wind from 243 at 4 knots gusting 10

Air temperature 17.2° C
Dewpoint 13.9° C

Last reported at 2020-Aug-13 14:03 UTC.
Time now 2020-Aug-13 14:49 UTC

Location: N 64°05' E 023°25'.
View on Google Maps.

See reports from other nearby stations

  
Tides and Currents Weather Stations Pressure Air Temp Water Temp Dewpoint Dewpoint Depression Visibility Wind Speed Wind Dir Waves Ship Positions
date/time (UTC)wind fromknots sea level pressurealtimeterstation pressurevisibilityair tempwater tempwave heightnotes
2020-Aug-13 14:03 243 4 gusting 10 17.2
2020-Aug-13 13:30 262 4 gusting 8 17.8
2020-Aug-13 13:17 260 5 gusting 7 17.8
2020-Aug-13 13:02 246 2 gusting 6 17.8
2020-Aug-13 12:45
2020-Aug-13 12:31
2020-Aug-13 12:15
2020-Aug-13 12:01
2020-Aug-13 11:31 213 3 gusting 6 17.8
2020-Aug-13 11:17 263 1 gusting 6 17.8
2020-Aug-13 10:16 249 2 gusting 6 16.7
2020-Aug-13 10:01 263 1 gusting 6 17.2
2020-Aug-13 09:47 223 3 gusting 6 16.7
2020-Aug-13 09:30 246 2 gusting 6 16.7
2020-Aug-13 09:17 223 3 gusting 6 16.7
2020-Aug-13 08:46 236 2 gusting 6 16.7
2020-Aug-13 08:30 227 3 gusting 6 16.1
2020-Aug-13 08:17 225 2 gusting 5 16.1
2020-Aug-13 08:03 220 2 gusting 6 16.1
2020-Aug-13 07:31 207 3 gusting 6 15.6
2020-Aug-13 07:16 213 3 gusting 6 15.6
2020-Aug-13 06:45 231 1 gusting 5 15.0
2020-Aug-13 06:15 215 1 gusting 4 15.0
2020-Aug-13 05:47 206 1 gusting 4 13.9
2020-Aug-13 05:30 196 2 gusting 4 13.3
2020-Aug-13 04:47 128 1 gusting 4 11.7
2020-Aug-13 04:30 136 2 gusting 4 11.1
2020-Aug-13 04:15 136 3 gusting 4 11.1
2020-Aug-13 03:45 132 3 gusting 5 10.6
2020-Aug-13 03:30 140 3 gusting 5 10.0
2020-Aug-13 02:47 132 3 gusting 4 10.6
2020-Aug-13 02:00 139 1 gusting 2 11.7
2020-Aug-13 01:45 130 1 gusting 3 11.7
2020-Aug-13 01:32 157 2 gusting 4 11.1
2020-Aug-13 01:00 123 1 gusting 3 11.7
2020-Aug-13 00:15 106 1 gusting 3 12.2
2020-Aug-13 00:02 129 12.2
2020-Aug-12 23:47 126 1 gusting 3 12.2
2020-Aug-12 23:30 134 2 gusting 4 12.2
2020-Aug-12 23:15 150 2 gusting 6 12.8
2020-Aug-12 23:01 132 5 gusting 7 12.8
2020-Aug-12 22:47 142 4 gusting 6 12.8
2020-Aug-12 22:16 140 5 gusting 7 12.8
2020-Aug-12 22:02 132 5 gusting 7 12.8
2020-Aug-12 21:47 134 6 gusting 8 12.8
2020-Aug-12 20:31 137 4 gusting 7 13.3
2020-Aug-12 20:15 132 5 gusting 7 13.3
2020-Aug-12 19:31 133 5 gusting 7 13.3
2020-Aug-12 19:02 130 4 gusting 6 13.9
2020-Aug-12 18:15 142 2 gusting 5 13.9
2020-Aug-12 17:31 142 2 gusting 5 13.9
2020-Aug-12 17:16 155 1 gusting 3 13.9
2020-Aug-12 17:00 155 1 gusting 4 13.9
2020-Aug-12 16:45 178 1 gusting 3 13.9
2020-Aug-12 16:32 174 1 gusting 3 13.9
2020-Aug-12 16:00 119 1 gusting 3 13.9
2020-Aug-12 15:34 097 5 gusting 6 13.9
2020-Aug-12 15:15 093 4 gusting 6 13.9
2020-Aug-12 14:30 192 0 gusting 2 13.3
2020-Aug-12 14:16 192 0 gusting 2 13.3
2020-Aug-12 14:00 207 0 gusting 5 13.3
2020-Aug-12 13:15 261 4 gusting 8 14.4
2020-Aug-12 12:45 265 4 gusting 10 15.0
2020-Aug-12 12:30 180 4 gusting 8 15.6
2020-Aug-12 12:15 219 4 gusting 8 16.1
2020-Aug-12 12:00 222 4 gusting 8 16.1
2020-Aug-12 11:30 237 2 gusting 5 16.1
2020-Aug-12 11:02 248 3 gusting 6 16.1
2020-Aug-12 10:45 218 2 gusting 6 16.1
2020-Aug-12 10:31 202 3 gusting 7 15.6
2020-Aug-12 10:15 225 5 gusting 7 15.6
2020-Aug-12 10:00 203 5 gusting 8 15.6
2020-Aug-12 09:46 222 6 gusting 9 15.6
2020-Aug-12 09:30 210 6 gusting 10 15.6
2020-Aug-12 08:31 203 6 gusting 10 15.0
2020-Aug-12 08:17 180 3 gusting 9 15.0
2020-Aug-12 08:00 180 6 gusting 9 14.4
2020-Aug-12 07:45 164 4 gusting 7 14.4
2020-Aug-12 07:30 177 6 gusting 7 14.4
2020-Aug-12 07:00 173 5 gusting 8 13.9
2020-Aug-12 06:01 157 5 gusting 8 13.3
2020-Aug-12 05:45 181 5 gusting 10 12.8
2020-Aug-12 05:15 165 6 gusting 10 12.8
2020-Aug-12 05:00 182 6 gusting 10 11.7
2020-Aug-12 03:31 154 5 gusting 7 11.7
2020-Aug-12 03:15 175 5 gusting 7 11.7
2020-Aug-12 03:00 165 5 gusting 7 11.7
2020-Aug-12 02:32 169 5 gusting 7 11.7
2020-Aug-12 02:15 170 4 gusting 6 11.7
2020-Aug-12 02:00 171 5 gusting 7 11.7
2020-Aug-12 01:45 178 5 gusting 6 11.7
2020-Aug-12 01:01 164 4 gusting 6 12.2
2020-Aug-12 00:31 173 4 gusting 6 11.7
2020-Aug-12 00:01 179 4 gusting 6 12.8
2020-Aug-11 23:45 157 4 gusting 6 12.8
2020-Aug-11 23:15 155 3 gusting 5 12.8
2020-Aug-11 22:46 146 3 gusting 6 12.8
2020-Aug-11 22:30 138 0 gusting 2 12.8
2020-Aug-11 22:15 136 2 gusting 4 12.8
2020-Aug-11 22:00 137 0 gusting 3 12.8
2020-Aug-11 21:45 136 1 gusting 3 13.3
2020-Aug-11 20:45 132 2 gusting 3 14.4
2020-Aug-11 20:15 117 2 gusting 5 14.4
2020-Aug-11 19:45 042 1 gusting 3 15.0
2020-Aug-11 19:30 034 1 gusting 4 15.0
2020-Aug-11 19:15 044 0 gusting 4 15.0
2020-Aug-11 19:00 059 1 gusting 4 15.0
2020-Aug-11 18:00 063 2 gusting 6 16.1
2020-Aug-11 17:46 037 3 gusting 6 16.1
2020-Aug-11 17:15 026 3 gusting 7 16.1
2020-Aug-11 17:00 045 4 gusting 7 16.1
2020-Aug-11 16:45 038 6 gusting 9 16.7
2020-Aug-11 16:30 031 4 gusting 8 16.7
2020-Aug-11 16:00 022 5 gusting 8 17.2
2020-Aug-11 15:45 355 6 gusting 10 17.2
2020-Aug-11 15:30 005 4 gusting 8 17.2
2020-Aug-11 15:15 005 4 gusting 7 17.2
2020-Aug-11 15:00 015 5 gusting 9 16.7
2020-Aug-11 14:45 360 5 gusting 8 17.2